Time;durP1;ratioP1;P1;durP2;ratioP2;P2;SDS_P1;SDS_P2;PMS_P1;PMS_P2;Temp;Humidity;BMP_temperature;BMP_pressure;BME280_temperature;BME280_humidity;BME280_pressure;Samples;Min_cycle;Max_cycle;Signal;HPM_P1;HPM_P2
2022/07/11 00:00:24;;;;;;;2.47;1.67;;;;;;;26.34;46.57;101019.59;5095876;28;20108;-79
2022/07/11 00:02:52;;;;;;;2.75;1.42;;;;;;;26.35;46.55;101032.13;5097438;28;20040;-79
2022/07/11 00:05:20;;;;;;;2.65;1.92;;;;;;;26.37;46.45;101030.94;5094004;28;20081;-79
2022/07/11 00:07:47;;;;;;;3.92;1.83;;;;;;;26.37;46.58;101033.66;5095822;28;20411;-78
2022/07/11 00:10:15;;;;;;;3.13;1.73;;;;;;;26.37;46.72;101030.94;5094898;28;20395;-79
2022/07/11 00:12:42;;;;;;;3.75;1.58;;;;;;;26.39;46.73;101028.06;5095618;28;20048;-81
2022/07/11 00:15:10;;;;;;;3.15;1.50;;;;;;;26.40;46.41;101029.75;5093913;28;20416;-80
2022/07/11 00:17:37;;;;;;;4.28;1.85;;;;;;;26.40;46.57;101027.03;5096625;28;20105;-80
2022/07/11 00:20:05;;;;;;;3.33;1.70;;;;;;;26.41;46.70;101031.41;5096610;28;20044;-80
2022/07/11 00:22:32;;;;;;;2.92;1.48;;;;;;;26.41;46.64;101036.84;5095910;28;20059;-80
2022/07/11 00:24:59;;;;;;;2.97;1.85;;;;;;;26.42;46.78;101024.16;5096472;28;20040;-80
2022/07/11 00:27:27;;;;;;;3.58;1.60;;;;;;;26.42;46.74;101032.28;5096212;28;20052;-80
2022/07/11 00:29:54;;;;;;;3.60;1.77;;;;;;;26.43;46.88;101031.28;5095485;28;20052;-80
2022/07/11 00:32:21;;;;;;;3.53;1.50;;;;;;;26.43;46.83;101029.41;5096992;28;20048;-80
2022/07/11 00:34:49;;;;;;;2.22;1.60;;;;;;;26.44;46.70;101038.38;5095208;28;20067;-80
2022/07/11 00:37:16;;;;;;;2.20;1.40;;;;;;;26.43;46.70;101040.25;5096105;28;20040;-80
2022/07/11 00:39:43;;;;;;;3.72;1.70;;;;;;;26.45;46.95;101038.22;5095619;28;20060;-80
2022/07/11 00:42:11;;;;;;;3.97;1.63;;;;;;;26.45;46.79;101043.66;5094830;28;20048;-81
2022/07/11 00:44:38;;;;;;;2.95;1.42;;;;;;;26.45;46.97;101043.66;5096734;28;20106;-83
2022/07/11 00:47:05;;;;;;;1.92;1.20;;;;;;;26.46;46.93;101044.53;5096714;28;20044;-81
2022/07/11 00:49:33;;;;;;;4.60;2.10;;;;;;;26.45;46.79;101032.81;5095655;28;20051;-81
2022/07/11 00:52:00;;;;;;;2.88;1.83;;;;;;;26.47;46.88;101040.78;5094819;28;20048;-81
2022/07/11 00:54:29;;;;;;;4.10;2.00;;;;;;;26.47;47.04;101041.63;5096605;28;20051;-81
2022/07/11 00:56:57;;;;;;;4.07;1.88;;;;;;;26.47;47.20;101038.91;5095299;28;20071;-81
2022/07/11 00:59:25;;;;;;;3.58;2.05;;;;;;;26.46;47.02;101042.66;5095604;28;20055;-82
2022/07/11 01:01:52;;;;;;;3.70;1.90;;;;;;;26.47;47.29;101047.06;5095048;28;20044;-82
2022/07/11 01:04:21;;;;;;;4.30;1.65;;;;;;;26.47;47.26;101044.34;5096365;28;20051;-82
2022/07/11 01:06:49;;;;;;;3.80;1.92;;;;;;;26.47;47.13;101047.06;5095755;28;20055;-82
2022/07/11 01:09:17;;;;;;;3.53;1.42;;;;;;;26.49;47.21;101049.59;5094125;28;20048;-83
2022/07/11 01:11:44;;;;;;;2.67;1.45;;;;;;;26.48;47.29;101051.47;5092764;28;20411;-83
2022/07/11 01:14:12;;;;;;;3.25;1.90;;;;;;;26.48;47.27;101048.75;5095094;28;20048;-83
2022/07/11 01:16:39;;;;;;;2.75;1.50;;;;;;;26.48;47.22;101048.75;5095876;28;20407;-83
2022/07/11 01:19:06;;;;;;;3.53;1.60;;;;;;;26.48;47.32;101056.91;5096650;28;20391;-83
2022/07/11 01:21:39;;;;;;;4.45;1.83;;;;;;;26.48;47.30;101061.47;5078024;28;20491;-83
2022/07/11 01:24:08;;;;;;;4.20;1.75;;;;;;;26.48;47.56;101058.78;5094500;28;20055;-80
2022/07/11 01:26:36;;;;;;;2.45;1.70;;;;;;;26.48;47.52;101058.78;5092472;28;20047;-80
2022/07/11 01:29:08;;;;;;;3.17;1.85;;;;;;;26.49;47.64;101055.88;5094380;28;20514;-79
2022/07/11 01:31:39;;;;;;;2.92;1.85;;;;;;;26.49;47.62;101064.00;5096318;28;20040;-79
2022/07/11 01:34:07;;;;;;;3.05;1.70;;;;;;;26.49;47.58;101074.88;5096004;28;20036;-79
2022/07/11 01:36:34;;;;;;;2.65;1.52;;;;;;;26.49;47.66;101065.88;5093936;28;20407;-79
2022/07/11 01:39:03;;;;;;;2.47;1.55;;;;;;;26.49;47.90;101061.28;5094431;28;20044;-80
2022/07/11 01:41:30;;;;;;;2.65;1.65;;;;;;;26.49;48.00;101069.44;5094305;28;20044;-79
2022/07/11 01:43:57;;;;;;;3.55;1.98;;;;;;;26.50;47.78;101067.59;5093584;28;20048;-80
2022/07/11 01:46:25;;;;;;;2.28;1.60;;;;;;;26.49;47.81;101069.44;5093765;28;20052;-80
2022/07/11 01:48:53;;;;;;;3.13;1.52;;;;;;;26.50;47.76;101067.59;5094156;28;20047;-80
2022/07/11 01:51:22;;;;;;;3.88;1.50;;;;;;;26.50;47.94;101076.59;5093374;28;20044;-79
2022/07/11 01:53:49;;;;;;;3.97;1.88;;;;;;;26.49;47.84;101072.16;5097090;28;20044;-81
2022/07/11 01:56:16;;;;;;;3.25;1.50;;;;;;;26.51;47.86;101070.13;5094959;28;20047;-81
2022/07/11 01:58:48;;;;;;;2.47;1.50;;;;;;;26.50;47.97;101070.31;5094968;28;20063;-80
2022/07/11 02:01:16;;;;;;;3.38;1.60;;;;;;;26.51;48.14;101072.84;5091492;28;20399;-81
2022/07/11 02:03:44;;;;;;;5.50;2.00;;;;;;;26.51;47.99;101075.56;5093531;28;20044;-80
2022/07/11 02:06:13;;;;;;;3.28;1.65;;;;;;;26.51;48.18;101075.56;5094030;28;20044;-81
2022/07/11 02:08:40;;;;;;;2.78;1.80;;;;;;;26.52;48.05;101070.97;5094062;28;20048;-83
2022/07/11 02:11:07;;;;;;;3.28;1.92;;;;;;;26.51;48.00;101074.72;5094400;28;20207;-83
2022/07/11 02:13:35;;;;;;;3.22;1.70;;;;;;;26.50;48.38;101068.44;5094835;28;20063;-84
2022/07/11 02:16:02;;;;;;;4.05;2.20;;;;;;;26.52;48.04;101077.25;5091294;28;20399;-83
2022/07/11 02:18:30;;;;;;;3.15;1.83;;;;;;;26.52;48.53;101077.25;5094397;28;20062;-83
2022/07/11 02:20:57;;;;;;;4.18;1.88;;;;;;;26.52;48.31;101079.97;5096628;28;20051;-83
2022/07/11 02:23:25;;;;;;;2.35;1.80;;;;;;;26.52;48.51;101070.97;5095982;28;20146;-84
2022/07/11 02:25:53;;;;;;;3.00;1.70;;;;;;;26.52;48.13;101074.53;5095861;28;20040;-84
2022/07/11 02:28:20;;;;;;;3.08;1.58;;;;;;;26.52;48.33;101068.25;5094973;28;20449;-84
2022/07/11 02:30:48;;;;;;;3.30;2.05;;;;;;;26.52;48.35;101069.09;5094021;28;20051;-84
2022/07/11 02:33:15;;;;;;;4.05;1.83;;;;;;;26.52;48.25;101071.81;5094231;28;20480;-83
2022/07/11 02:35:45;;;;;;;2.72;1.70;;;;;;;26.52;48.23;101074.53;5092661;28;20047;-83
2022/07/11 02:38:16;;;;;;;3.33;1.63;;;;;;;26.53;48.40;101072.66;5094437;28;20404;-83
2022/07/11 02:40:47;;;;;;;3.33;1.80;;;;;;;26.52;48.49;101071.81;5092095;28;20075;-84
2022/07/11 02:43:15;;;;;;;3.08;1.75;;;;;;;26.52;48.33;101069.09;5094426;28;20052;-84
2022/07/11 02:45:43;;;;;;;3.25;1.60;;;;;;;26.53;48.34;101067.22;5094365;28;20379;-84
2022/07/11 02:48:10;;;;;;;2.10;1.60;;;;;;;26.53;47.98;101069.94;5092724;28;20059;-86
2022/07/11 02:50:38;;;;;;;2.85;1.80;;;;;;;26.53;48.13;101080.81;5094454;28;20043;-84
2022/07/11 02:53:05;;;;;;;3.13;1.73;;;;;;;26.53;48.31;101083.53;5096412;28;20043;-85
2022/07/11 02:55:32;;;;;;;4.13;1.60;;;;;;;26.53;48.39;101087.06;5097906;28;20380;-85
2022/07/11 02:58:00;;;;;;;3.72;1.70;;;;;;;26.53;48.29;101087.06;5078290;28;20048;-85
2022/07/11 03:00:27;;;;;;;2.67;1.88;;;;;;;26.53;48.33;101078.09;5098598;28;20491;-85
2022/07/11 03:02:55;;;;;;;3.10;2.00;;;;;;;26.53;48.31;101083.53;5080062;28;20048;-85
2022/07/11 03:05:22;;;;;;;3.95;1.88;;;;;;;26.53;48.45;101080.81;5096952;28;20040;-85
2022/07/11 03:07:50;;;;;;;2.30;1.77;;;;;;;26.52;48.30;101085.41;5097153;28;20047;-85
2022/07/11 03:10:17;;;;;;;3.28;1.83;;;;;;;26.53;48.17;101083.53;5096689;28;20040;-84
2022/07/11 03:12:45;;;;;;;2.80;1.63;;;;;;;26.53;48.34;101092.50;5096156;28;20508;-83
2022/07/11 03:15:12;;;;;;;2.10;1.60;;;;;;;26.51;48.39;101083.72;5079069;28;20154;-81
2022/07/11 03:17:40;;;;;;;3.10;1.60;;;;;;;26.52;48.20;101085.41;5098549;28;20055;-81
2022/07/11 03:20:08;;;;;;;3.63;1.88;;;;;;;26.52;48.33;101089.97;5095549;28;20503;-81
2022/07/11 03:22:36;;;;;;;2.15;1.65;;;;;;;26.53;48.49;101091.66;5096035;28;20047;-80
2022/07/11 03:25:05;;;;;;;4.60;1.90;;;;;;;26.52;48.27;101093.53;5097024;28;20081;-81
2022/07/11 03:27:34;;;;;;;3.30;1.80;;;;;;;26.52;48.21;101096.25;5096359;28;20499;-81
2022/07/11 03:30:03;;;;;;;3.80;1.98;;;;;;;26.51;48.37;101089.13;5096586;28;20051;-82
2022/07/11 03:32:30;;;;;;;2.40;1.90;;;;;;;26.52;48.26;101084.56;5097079;28;20051;-81
2022/07/11 03:37:44;;;;;;;4.22;1.83;;;;;;;26.51;48.37;101093.72;5099101;28;20044;-82
2022/07/11 03:40:11;;;;;;;4.75;1.85;;;;;;;26.51;48.33;101097.28;5096035;28;20059;-82
2022/07/11 03:42:39;;;;;;;3.85;2.00;;;;;;;26.51;48.36;101097.28;5095945;28;20040;-82
2022/07/11 03:45:08;;;;;;;3.75;2.15;;;;;;;26.49;48.57;101091.16;5096338;28;20123;-82
2022/07/11 03:47:36;;;;;;;2.63;1.73;;;;;;;26.49;48.60;101107.44;5096926;28;20110;-82
2022/07/11 03:50:04;;;;;;;3.50;1.77;;;;;;;26.48;48.16;101102.22;5098490;28;20044;-82
2022/07/11 03:52:32;;;;;;;3.75;1.92;;;;;;;26.46;47.96;101107.81;5098141;28;20051;-82
2022/07/11 03:54:59;;;;;;;3.97;1.88;;;;;;;26.45;48.47;101114.25;5098261;28;20051;-82
2022/07/11 03:57:27;;;;;;;2.55;1.90;;;;;;;26.41;48.32;101103.88;5097187;28;20047;-82
2022/07/11 03:59:54;;;;;;;2.55;2.03;;;;;;;26.38;48.63;101105.94;5094751;28;20052;-81
2022/07/11 04:02:22;;;;;;;2.42;1.90;;;;;;;26.39;48.25;101114.91;5097050;28;20395;-81
2022/07/11 04:04:49;;;;;;;2.78;2.05;;;;;;;26.36;48.52;101116.09;5095382;28;20492;-81
2022/07/11 04:07:16;;;;;;;3.15;1.88;;;;;;;26.35;48.56;101117.13;5097391;28;20047;-81
2022/07/11 04:09:44;;;;;;;3.60;1.83;;;;;;;26.36;48.42;101120.69;5096864;28;20502;-81
2022/07/11 04:12:12;;;;;;;4.25;2.33;;;;;;;26.35;48.60;101113.56;5077704;28;20079;-82
2022/07/11 04:14:39;;;;;;;2.40;1.88;;;;;;;26.35;48.41;101124.41;5094400;28;20052;-82
2022/07/11 04:17:06;;;;;;;3.45;1.88;;;;;;;26.36;48.52;101131.53;5096537;28;20044;-81
2022/07/11 04:19:34;;;;;;;4.10;2.25;;;;;;;26.35;48.52;101129.84;5095524;28;20044;-81
2022/07/11 04:22:01;;;;;;;3.03;2.10;;;;;;;26.35;48.51;101129.84;5097585;28;20052;-81
2022/07/11 04:24:29;;;;;;;4.63;2.10;;;;;;;26.36;48.50;101136.97;5096223;28;20055;-81
2022/07/11 04:26:57;;;;;;;4.70;2.05;;;;;;;26.35;48.53;101135.28;5095236;28;20044;-81
2022/07/11 04:29:24;;;;;;;3.00;2.15;;;;;;;26.35;48.44;101140.72;5096862;28;20537;-81
2022/07/11 04:31:52;;;;;;;3.95;2.08;;;;;;;26.33;48.52;101148.16;5095362;28;20052;-81
2022/07/11 04:34:20;;;;;;;3.90;2.20;;;;;;;26.32;48.53;101150.03;5097018;28;20058;-81
2022/07/11 04:36:47;;;;;;;3.10;2.15;;;;;;;26.34;48.45;101155.31;5094666;28;20067;-81
2022/07/11 04:39:15;;;;;;;3.72;2.35;;;;;;;26.33;48.47;101159.00;5095311;28;20055;-81
2022/07/11 04:41:42;;;;;;;4.22;2.42;;;;;;;26.33;48.84;101156.31;5093909;28;20044;-81
2022/07/11 04:44:10;;;;;;;4.95;2.42;;;;;;;26.33;48.81;101149.03;5096809;28;20043;-82
2022/07/11 04:46:38;;;;;;;3.35;2.00;;;;;;;26.33;49.04;101149.03;5095700;28;20036;-82
2022/07/11 04:49:06;;;;;;;4.13;2.83;;;;;;;26.33;48.86;101149.03;5096955;28;20059;-82
2022/07/11 04:51:33;;;;;;;3.58;2.50;;;;;;;26.32;48.90;101152.75;5095609;28;20096;-82
2022/07/11 04:54:00;;;;;;;4.28;2.50;;;;;;;26.32;49.00;101149.19;5095693;28;20052;-82
2022/07/11 04:56:28;;;;;;;2.85;2.28;;;;;;;26.33;48.82;101159.00;5094957;28;20051;-82
2022/07/11 04:58:55;;;;;;;6.78;2.60;;;;;;;26.33;48.77;101159.00;5095829;28;20047;-82
2022/07/11 05:01:25;;;;;;;5.30;2.55;;;;;;;26.34;48.96;101160.75;5096527;28;20044;-82
2022/07/11 05:03:53;;;;;;;4.85;2.35;;;;;;;26.32;48.71;101157.31;5092960;28;20063;-81
2022/07/11 05:06:20;;;;;;;4.22;2.90;;;;;;;26.32;48.84;101160.88;5096092;28;20048;-81
2022/07/11 05:08:48;;;;;;;6.32;2.80;;;;;;;26.33;48.93;101159.91;5094300;28;20050;-81
2022/07/11 05:11:15;;;;;;;3.42;2.85;;;;;;;26.33;48.99;101164.44;5095808;28;20044;-81
2022/07/11 05:13:43;;;;;;;4.78;2.65;;;;;;;26.32;48.88;101163.59;5097259;28;20044;-81
2022/07/11 05:16:11;;;;;;;3.78;2.50;;;;;;;26.32;48.87;101168.19;5092879;28;20059;-81
2022/07/11 05:18:38;;;;;;;5.88;2.58;;;;;;;26.32;49.12;101163.59;5094838;28;20052;-81
2022/07/11 05:21:06;;;;;;;5.32;3.03;;;;;;;26.30;49.05;101159.38;5094274;28;20056;-81
2022/07/11 05:23:33;;;;;;;3.40;2.30;;;;;;;26.29;49.21;101157.66;5095757;28;20411;-81
2022/07/11 05:26:01;;;;;;;4.10;2.65;;;;;;;26.29;49.30;101163.09;5094927;28;20051;-81
2022/07/11 05:28:28;;;;;;;4.60;3.00;;;;;;;26.29;49.21;101163.09;5094076;28;20040;-81
2022/07/11 05:30:55;;;;;;;3.63;2.85;;;;;;;26.29;49.07;101169.41;5095805;28;20048;-81
2022/07/11 05:33:23;;;;;;;2.90;2.33;;;;;;;26.30;49.11;101165.66;5092748;28;20054;-81
2022/07/11 05:35:50;;;;;;;4.13;2.60;;;;;;;26.30;49.10;101162.94;5094145;28;20403;-81
2022/07/11 05:38:17;;;;;;;3.28;2.30;;;;;;;26.31;49.26;101169.22;5091348;28;20044;-81
2022/07/11 05:40:44;;;;;;;4.30;2.78;;;;;;;26.31;49.51;101174.66;5092774;28;20055;-81
2022/07/11 05:43:12;;;;;;;5.07;2.63;;;;;;;26.31;49.33;101174.66;5095246;28;20051;-81
2022/07/11 05:45:39;;;;;;;4.28;2.53;;;;;;;26.31;49.34;101177.34;5093983;28;20051;-81
2022/07/11 05:48:06;;;;;;;3.85;2.70;;;;;;;26.31;49.33;101177.34;5093798;28;20048;-82
2022/07/11 05:50:34;;;;;;;6.57;3.40;;;;;;;26.30;49.49;101178.38;5093770;28;20044;-82
2022/07/11 05:53:02;;;;;;;6.25;2.95;;;;;;;26.30;49.69;101181.94;5093349;28;20052;-82
2022/07/11 05:55:30;;;;;;;4.07;2.78;;;;;;;26.31;49.77;101188.22;5093430;28;20051;-82
2022/07/11 05:58:00;;;;;;;4.80;2.67;;;;;;;26.32;49.67;101184.47;5093547;28;20048;-81
2022/07/11 06:00:27;;;;;;;4.65;2.40;;;;;;;26.34;49.59;101190.59;5096283;28;20047;-80
2022/07/11 06:02:55;;;;;;;3.33;2.45;;;;;;;26.34;49.60;101193.31;5094039;28;20044;-82
2022/07/11 06:05:22;;;;;;;3.45;2.60;;;;;;;26.33;49.40;101191.59;5091637;28;20055;-82
2022/07/11 06:10:36;;;;;;;4.40;2.88;;;;;;;26.33;49.92;101194.31;5091798;28;20376;-82
2022/07/11 06:13:03;;;;;;;4.18;3.20;;;;;;;26.32;49.96;101201.59;5091710;28;20055;-81
2022/07/11 06:15:31;;;;;;;5.68;2.80;;;;;;;26.33;49.96;101200.59;5094049;28;20061;-81
2022/07/11 06:17:58;;;;;;;4.03;2.65;;;;;;;26.34;49.95;101198.75;5095005;28;20047;-81
2022/07/11 06:20:26;;;;;;;4.53;3.00;;;;;;;26.32;50.24;101196.19;5092121;28;20059;-81
2022/07/11 06:22:53;;;;;;;3.60;3.30;;;;;;;26.33;50.16;101205.16;5092075;28;20056;-80
2022/07/11 06:25:21;;;;;;;6.35;4.00;;;;;;;26.26;50.13;101206.88;5076183;28;20063;-79
2022/07/11 06:27:48;;;;;;;6.43;4.03;;;;;;;26.17;50.38;101205.16;5095887;28;20040;-80
2022/07/11 06:30:19;;;;;;;7.28;3.58;;;;;;;26.12;51.01;101206.50;5097696;28;20039;-80
2022/07/11 06:32:48;;;;;;;3.63;2.83;;;;;;;26.12;50.83;101208.38;5097051;28;20051;-80
2022/07/11 06:35:16;;;;;;;3.97;3.20;;;;;;;26.12;51.16;101209.22;5097398;28;20370;-80
2022/07/11 06:37:43;;;;;;;5.80;4.00;;;;;;;26.09;51.22;101215.00;5096558;28;20471;-78
2022/07/11 06:40:11;;;;;;;6.30;4.00;;;;;;;26.05;51.38;101215.47;5095367;28;20056;-80
2022/07/11 06:42:39;;;;;;;5.72;4.57;;;;;;;25.99;51.78;101216.16;5097311;28;20059;-79
2022/07/11 06:45:08;;;;;;;6.57;3.65;;;;;;;25.97;51.79;101219.06;5095684;28;20511;-79
2022/07/11 06:47:35;;;;;;;6.65;3.58;;;;;;;25.95;51.49;101218.34;5096836;28;20071;-81
2022/07/11 06:50:03;;;;;;;6.57;3.45;;;;;;;25.96;51.25;101220.03;5095799;28;20048;-83
2022/07/11 06:52:30;;;;;;;4.95;3.90;;;;;;;25.97;50.92;101227.19;5097616;28;20411;-82
2022/07/11 06:54:58;;;;;;;4.68;2.85;;;;;;;25.98;50.74;101223.44;5097947;28;20047;-78
2022/07/11 06:57:25;;;;;;;5.32;2.92;;;;;;;26.01;50.56;101222.25;5097851;28;20044;-78
2022/07/11 06:59:53;;;;;;;7.20;3.13;;;;;;;26.01;50.52;101228.56;5097545;28;20052;-78
2022/07/11 07:02:23;;;;;;;3.22;2.83;;;;;;;26.03;50.41;101226.50;5097277;28;20484;-78
2022/07/11 07:04:50;;;;;;;4.22;3.05;;;;;;;26.07;50.40;101219.72;5096466;28;20051;-78
2022/07/11 07:07:18;;;;;;;3.47;2.50;;;;;;;26.10;50.15;101224.84;5096929;28;20055;-77
2022/07/11 07:09:45;;;;;;;4.00;2.90;;;;;;;26.14;50.05;101219.94;5095618;28;20044;-79
2022/07/11 07:12:18;;;;;;;3.42;2.53;;;;;;;26.14;48.31;101230.78;5097866;28;20058;-77
2022/07/11 07:14:45;;;;;;;3.95;2.80;;;;;;;26.13;48.27;101232.66;5098106;28;20055;-80
2022/07/11 07:17:12;;;;;;;3.70;2.58;;;;;;;26.11;48.39;101225.69;5097954;28;20044;-77
2022/07/11 07:19:40;;;;;;;5.20;2.63;;;;;;;26.08;48.36;101226.84;5097213;28;20043;-77
2022/07/11 07:22:08;;;;;;;4.13;2.60;;;;;;;26.06;48.91;101233.47;5097761;28;20055;-80
2022/07/11 07:24:36;;;;;;;3.78;2.30;;;;;;;26.06;49.05;101236.19;5097487;28;20044;-79
2022/07/11 07:27:04;;;;;;;5.05;2.88;;;;;;;26.05;49.29;101229.91;5096259;28;20047;-79
2022/07/11 07:29:32;;;;;;;4.55;2.67;;;;;;;26.06;49.44;101228.06;5096353;28;20044;-79
2022/07/11 07:32:00;;;;;;;4.55;2.20;;;;;;;26.07;49.78;101233.28;5096132;28;20055;-80
2022/07/11 07:34:27;;;;;;;4.47;2.50;;;;;;;26.08;49.91;101223.28;5096628;28;20499;-81
2022/07/11 07:36:54;;;;;;;4.63;2.40;;;;;;;26.09;50.65;101230.41;5097177;28;20416;-79
2022/07/11 07:39:22;;;;;;;3.60;2.20;;;;;;;26.11;50.86;101226.53;5096627;28;20063;-79
2022/07/11 07:41:49;;;;;;;3.13;2.45;;;;;;;26.13;50.81;101229.94;5097258;28;20051;-79
2022/07/11 07:44:16;;;;;;;5.00;2.67;;;;;;;26.13;50.87;101227.22;5078774;28;20079;-80
2022/07/11 07:46:44;;;;;;;3.97;2.30;;;;;;;26.17;50.79;101221.44;5096712;28;20044;-80
2022/07/11 07:49:11;;;;;;;5.20;2.80;;;;;;;26.19;50.40;101222.13;5096420;28;20052;-80
2022/07/11 07:51:39;;;;;;;3.47;1.77;;;;;;;26.21;50.49;101220.97;5095187;28;20052;-80
2022/07/11 07:54:06;;;;;;;5.10;2.22;;;;;;;26.25;50.47;101222.31;5095942;28;20055;-81
2022/07/11 07:56:33;;;;;;;3.78;2.10;;;;;;;26.28;50.05;101221.97;5095712;28;20384;-81
2022/07/11 07:59:01;;;;;;;3.25;2.20;;;;;;;26.29;50.14;101215.53;5094503;28;20051;-79
2022/07/11 08:01:38;;;;;;;3.95;2.47;;;;;;;26.32;49.73;101220.59;5096837;28;20055;-80
2022/07/11 08:04:08;;;;;;;2.90;2.13;;;;;;;26.36;50.34;101223.84;5096668;28;20044;-81
2022/07/11 08:06:36;;;;;;;4.78;2.40;;;;;;;26.37;50.42;101215.53;5095657;28;20043;-78
2022/07/11 08:09:05;;;;;;;5.35;2.38;;;;;;;26.39;50.27;101215.34;5096019;28;20040;-78
2022/07/11 08:11:33;;;;;;;8.50;2.13;;;;;;;26.41;50.46;101223.31;5095857;28;20052;-76
2022/07/11 08:14:03;;;;;;;6.47;2.20;;;;;;;26.43;50.74;101218.59;5095929;28;20044;-78
2022/07/11 08:16:32;;;;;;;2.78;2.20;;;;;;;26.48;51.36;101213.53;5095697;28;20044;-77
2022/07/11 08:19:01;;;;;;;3.35;2.45;;;;;;;26.50;51.76;101212.34;5094397;28;20044;-77
2022/07/11 08:21:29;;;;;;;5.68;2.47;;;;;;;26.56;51.65;101205.38;5095590;28;20039;-76
2022/07/11 08:23:57;;;;;;;5.25;2.47;;;;;;;26.62;51.10;101210.13;5095430;28;20399;-78
2022/07/11 08:26:24;;;;;;;4.07;2.38;;;;;;;26.68;51.14;101214.03;5095203;28;20048;-77
2022/07/11 08:29:04;;;;;;;6.03;2.50;;;;;;;26.72;51.11;101218.94;5093599;28;20040;-76
2022/07/11 08:31:32;;;;;;;4.90;2.10;;;;;;;26.73;50.95;101217.91;5094673;28;20048;-75
2022/07/11 08:34:01;;;;;;;2.97;1.95;;;;;;;26.76;51.21;101211.28;5094996;28;20056;-76
2022/07/11 08:36:29;;;;;;;4.00;2.40;;;;;;;26.81;51.14;101211.63;5095194;28;20040;-76
2022/07/11 08:38:58;;;;;;;4.80;2.55;;;;;;;26.81;50.81;101207.03;5094404;28;20048;-77
2022/07/11 08:41:26;;;;;;;3.33;2.10;;;;;;;26.85;50.41;101218.41;5095682;28;20044;-78
2022/07/11 08:43:54;;;;;;;3.80;2.20;;;;;;;26.83;50.58;101210.44;5094843;28;20051;-77
2022/07/11 08:46:21;;;;;;;3.92;2.17;;;;;;;26.84;50.99;101205.84;5093192;28;20054;-78
2022/07/11 08:48:51;;;;;;;2.55;2.08;;;;;;;26.83;50.75;101202.28;5094899;28;20036;-76
2022/07/11 08:51:20;;;;;;;3.17;2.17;;;;;;;26.84;51.49;101205.84;5093915;28;20043;-75
2022/07/11 08:53:47;;;;;;;3.17;1.98;;;;;;;26.87;50.01;101202.78;5094576;28;20048;-77
2022/07/11 08:56:17;;;;;;;4.82;2.40;;;;;;;26.92;49.80;101202.28;5093440;28;20048;-78
2022/07/11 08:58:46;;;;;;;2.97;2.25;;;;;;;26.98;49.55;101196.13;5094355;28;20114;-76
2022/07/11 09:01:33;;;;;;;3.40;2.20;;;;;;;27.04;49.95;101184.59;5092817;28;20071;-76
2022/07/11 09:04:01;;;;;;;4.22;2.38;;;;;;;27.06;49.95;101185.25;5094499;28;20429;-76
2022/07/11 09:06:29;;;;;;;5.75;2.45;;;;;;;27.08;49.50;101181.34;5094005;28;20043;-77
2022/07/11 09:09:00;;;;;;;4.22;2.53;;;;;;;27.17;49.63;101184.91;5093918;28;20051;-77
2022/07/11 09:11:47;;;;;;;3.15;2.03;;;;;;;27.17;49.61;101179.47;5092795;28;20040;-75
2022/07/11 09:14:29;;;;;;;3.60;2.55;;;;;;;27.15;49.76;101173.38;5093893;28;20052;-76
2022/07/11 09:16:59;;;;;;;3.30;2.30;;;;;;;27.14;48.96;101170.81;5094486;28;20051;-77
2022/07/11 09:19:29;;;;;;;3.83;2.40;;;;;;;27.18;48.42;101164.84;5094023;28;20036;-75
2022/07/11 09:25:43;;;;;;;4.82;2.47;;;;;;;27.27;48.62;101174.69;5062457;28;20066;-76
2022/07/11 09:28:10;;;;;;;3.22;2.30;;;;;;;27.26;48.63;101180.28;5095232;28;20048;-77
2022/07/11 09:30:43;;;;;;;4.30;2.33;;;;;;;27.24;48.47;101183.19;5096927;28;20412;-76
2022/07/11 09:33:15;;;;;;;4.38;2.00;;;;;;;27.21;48.45;101166.38;5095612;28;20084;-77
2022/07/11 09:35:45;;;;;;;3.13;2.08;;;;;;;27.19;48.54;101176.59;5093685;28;20425;-77
2022/07/11 09:38:21;;;;;;;3.50;2.10;;;;;;;27.16;48.22;101175.06;5091336;28;20052;-77
2022/07/11 09:40:49;;;;;;;3.00;2.10;;;;;;;27.15;48.56;101177.97;5074530;28;20051;-77
2022/07/11 09:43:24;;;;;;;3.50;2.10;;;;;;;27.12;48.40;101176.44;5072710;28;20049;-77
2022/07/11 09:45:52;;;;;;;4.88;2.47;;;;;;;27.11;48.12;101172.88;5073048;28;20048;-76
2022/07/11 09:48:19;;;;;;;2.90;2.00;;;;;;;27.11;48.21;101175.59;5086606;28;20067;-77
2022/07/11 09:51:04;;;;;;;3.58;2.42;;;;;;;27.11;47.79;101172.88;5093025;28;20044;-76
2022/07/11 09:53:31;;;;;;;2.95;2.20;;;;;;;27.12;48.07;101181.88;5093170;28;20048;-76
2022/07/11 09:55:59;;;;;;;4.10;1.95;;;;;;;27.11;48.17;101175.59;5093065;28;20110;-77
2022/07/11 09:58:31;;;;;;;4.40;2.33;;;;;;;27.11;47.93;101178.31;5082029;28;20036;-75
2022/07/11 10:00:59;;;;;;;3.75;2.20;;;;;;;27.16;46.77;101179.66;5066759;28;20048;-77
2022/07/11 10:03:28;;;;;;;4.05;2.95;;;;;;;27.21;46.66;101172.66;5091664;28;20040;-76
2022/07/11 10:06:16;;;;;;;4.57;2.63;;;;;;;27.26;46.57;101177.56;5094547;28;20052;-76
2022/07/11 10:08:43;;;;;;;3.33;2.30;;;;;;;27.27;46.82;101173.84;5092211;28;20051;-76
2022/07/11 10:11:11;;;;;;;3.08;2.20;;;;;;;27.27;46.73;101166.53;5092480;28;20040;-76
2022/07/11 10:13:39;;;;;;;6.70;2.55;;;;;;;27.25;46.93;101163.13;5092598;28;20048;-77
2022/07/11 10:16:40;;;;;;;5.07;2.30;;;;;;;27.27;47.16;101162.97;5091065;28;20055;-76
2022/07/11 10:19:18;;;;;;;4.00;2.17;;;;;;;27.27;47.38;101173.84;5093019;28;20036;-76
2022/07/11 10:21:56;;;;;;;5.18;2.97;;;;;;;27.31;47.68;101167.88;5093120;28;20059;-77
2022/07/11 10:24:32;;;;;;;6.22;2.65;;;;;;;27.30;48.50;101171.59;5093835;28;20048;-77
2022/07/11 10:27:21;;;;;;;5.07;2.50;;;;;;;27.29;48.19;101164.47;5075061;28;20044;-76
2022/07/11 10:29:53;;;;;;;4.50;2.08;;;;;;;27.29;48.74;101174.50;5092261;28;20047;-76
2022/07/11 10:32:21;;;;;;;4.40;2.75;;;;;;;27.27;48.89;101176.56;5090534;28;20063;-76
2022/07/11 10:35:09;;;;;;;3.97;2.55;;;;;;;27.25;49.10;101175.88;5093088;28;20051;-76
2022/07/11 10:37:53;;;;;;;6.30;2.80;;;;;;;27.24;48.93;101169.59;5091452;28;20052;-75
2022/07/11 10:40:49;;;;;;;5.75;2.30;;;;;;;27.22;49.04;101165.34;5083953;28;20388;-76
2022/07/11 10:43:22;;;;;;;4.53;3.03;;;;;;;27.22;49.10;101166.19;5088826;28;20088;-76
2022/07/11 10:46:01;;;;;;;5.05;2.60;;;;;;;27.21;49.27;101169.94;5092350;28;20475;-76
2022/07/11 10:48:34;;;;;;;4.07;2.72;;;;;;;27.22;49.16;101171.63;5092494;28;20443;-76
2022/07/11 10:51:16;;;;;;;5.82;2.67;;;;;;;27.24;49.09;101166.88;5092115;28;20044;-76
2022/07/11 10:53:47;;;;;;;4.73;2.67;;;;;;;27.25;48.91;101165.00;5092329;28;20040;-76
2022/07/11 10:56:38;;;;;;;5.63;2.53;;;;;;;27.26;49.16;101167.53;5091313;28;20047;-76
2022/07/11 10:59:22;;;;;;;4.57;2.53;;;;;;;27.26;49.02;101153.09;5091369;28;20036;-76
2022/07/11 11:02:10;;;;;;;4.53;1.90;;;;;;;27.25;48.67;101157.69;5091848;28;20051;-77
2022/07/11 11:04:49;;;;;;;3.40;2.22;;;;;;;27.27;48.44;101163.81;5091519;28;20044;-77
2022/07/11 11:07:31;;;;;;;4.90;2.47;;;;;;;27.28;47.43;101153.78;5092360;28;20048;-77
2022/07/11 11:09:59;;;;;;;3.70;2.60;;;;;;;27.29;48.11;101155.47;5091008;28;20047;-76
2022/07/11 11:13:06;;;;;;;3.17;2.10;;;;;;;27.32;47.89;101155.13;5090680;28;20048;-76
2022/07/11 11:15:44;;;;;;;3.92;2.22;;;;;;;27.32;48.12;101153.25;5095833;28;20036;-77
2022/07/11 11:18:25;;;;;;;4.40;2.25;;;;;;;27.32;48.23;101144.25;5095693;28;20055;-77
2022/07/11 11:20:59;;;;;;;3.65;2.33;;;;;;;27.34;47.94;101147.63;5094766;28;20048;-77
2022/07/11 11:23:38;;;;;;;4.20;2.53;;;;;;;27.33;47.93;101141.34;5092956;28;20518;-77
2022/07/11 11:26:18;;;;;;;3.72;2.30;;;;;;;27.34;48.91;101137.59;5076048;28;20052;-77
2022/07/11 11:28:58;;;;;;;4.75;2.58;;;;;;;27.32;48.43;101147.81;5093162;28;20032;-76
2022/07/11 11:31:26;;;;;;;3.50;1.95;;;;;;;27.32;49.33;101136.94;5095777;28;20044;-77
2022/07/11 11:33:54;;;;;;;4.40;2.35;;;;;;;27.33;48.34;101138.63;5095220;28;20047;-76
2022/07/11 11:36:23;;;;;;;3.38;2.22;;;;;;;27.34;48.83;101132.16;5094144;28;20483;-77
2022/07/11 11:38:52;;;;;;;3.47;2.17;;;;;;;27.34;48.95;101129.44;5094982;28;20044;-76
2022/07/11 11:41:27;;;;;;;3.63;2.05;;;;;;;27.40;47.96;101135.22;5089492;28;20036;-76
2022/07/11 11:43:58;;;;;;;2.70;1.88;;;;;;;27.41;48.21;101128.75;5074705;28;20048;-76